Terminal Aerodrome Forecast
Issued by NWS

Home | Current Version | Previous Version | Text Only | Print | Product List | Glossary On
Versions: 1 2 3 4 5 6 7 8 9 10 11 12 13 14 15 16 17 18 19 20 21 22 23 24 25 26
000
FTUS44 KOUN 171124
TAFPNC
TAF
KPNC 171124Z 1712/1812 14008KT P6SM FEW030
      TEMPO 1712/1714 4SM BR BKN030
     FM171600 20008G14KT P6SM SCT030
     FM180200 16007KT P6SM SCT140 BKN250=

USA.gov is the U.S. government's official web portal to all federal, state and local government web resources and services.